Detalhes do Voo

Voltar

 DETALHES DO VÔO

Piloto: GLD769 Ricardo D. Aeronave: FLIGHTFACTOR A320 ULTIMATE - MATADAVIA TEXTURA GOLD - AIRBUS A320 - FLIGHTFACTOR (X-PLANE 11) 5 ANOS Distância: 265NM
Origem: SBCT Destino: SBMG Duração: 0.77
Validação: Validado Tipo: Regular Matrícula: PR-GQI
ZFW: 54889 Block Fuel/Init FOB 2,744/0 Combustível em Voo 2,117
Passageiros: 160 Carga: 15322 Alternativo: SBCA
Hora da Decolagem: Velocidade de Cruzeiro: 423 Nível de Voo: FL200
Regra Visual: IFR ICAO da Aeronave: A320 Unidade de Peso: Kg
Data: 02/02/2020 Observação: Rede: VATSIM
Acidentou?: Não Comentários do Validador: Pontuação do Voo 80.784

 ROTA

ROTA GEGOB UZ63 LON
REMARKS OPR/GOLD VIRTUAL AIRLINES PER/C FROM SSTH RMK/PIC GLD769 /WWW.GOLDVIRTUAL.COM.BR

 PENALIDADES DO VOO

Para entender como cada item é pontuado, consulte as regras de avaliação.

Nenhuma penalidade registrada para este voo.

 ANÁLISE DO POUSO

Vento durante o pouso: 10º/6 kt Proa durante o pouso: 168
V/S do Pouso: -668.21 ft/min IAS do Pouso: 131.96 kt
Força G no pouso: 2.6 G Bank no pouso: -0.1
Pitch no Pouso 4.8 Flaps no Pouso 0
Nav Lights ON Landing Lights ON
Beacon Lights ON Strobe Lights ON

 MAPA DO VOO

 PERFIL VERTICAL DO VOO

 EVENTOS PRINCIPAIS DO VOO

DATAEVENTOIASALTITUDE
2020-02-02 15:02:38 SIM ACARS version 1.4.032996
2020-02-02 15:02:38 BOARDING32996
2020-02-02 15:43:10 STARTING ENGINE 2 02996
2020-02-02 15:43:54 STARTING ENGINE 1 02996
2020-02-02 15:47:21 FLAPS EXTENSION 25 % 02996
2020-02-02 16:01:42 TAXI TO THE RWY 62996
2020-02-02 16:16:30 ROLLING FOR TAKE OFF442996
2020-02-02 16:17:02 TAKE OFF1862998
2020-02-02 16:17:02 TAKE OFF WITH LIGHTS OFF1862998
2020-02-02 16:17:02 LIGHTS OFF BELOW 10000 ft1862998
2020-02-02 16:17:11 GEAR UP1993393
2020-02-02 16:17:25 FLAPS EXTENSION 0 % 1984338
2020-02-02 16:19:22 CRUISE2509195
2020-02-02 16:20:52 CLIMBING2519618
2020-02-02 16:21:12 LIGHTS ON ABOVE 10000 ft25410501
2020-02-02 16:26:52 CRUISE33520183
2020-02-02 16:46:22 DESCEND31819752
2020-02-02 16:56:56 FLAPS EXTENSION 25 % 2085773
2020-02-02 16:58:22 FLAPS EXTENSION 50 % 1845097
2020-02-02 16:58:31 GEAR DOWN1854980
2020-02-02 16:58:52 FLAPS EXTENSION 75 % 1634773
2020-02-02 16:59:20 FLAPS EXTENSION 100 % 1354631
2020-02-02 17:00:22 CRUISE1324166
2020-02-02 17:01:02 DESCEND1333846
2020-02-02 17:03:45 LANDING1321799
2020-02-02 17:04:19 TAXI TO THE GATE201798
2020-02-02 17:05:03 TAXI SPEED ABOVE 25 KTS231798
2020-02-02 17:07:35 STOPPING ENGINE 1 01798
2020-02-02 17:07:38 STOPPING ENGINE 2 01798
2020-02-02 17:07:52 FLAPS EXTENSION 75 % 01798
2020-02-02 17:07:52 FLAPS EXTENSION 50 % 01798
2020-02-02 17:07:52 FLAPS EXTENSION 25 % 01798
2020-02-02 17:07:52 FLAPS EXTENSION 0 % 01798

 DADOS DO ACARS

DATA IAS GS ALTITUDE COMBUSTÍVEL USADO OAT FASE DO VOO
2020-02-02 15:03:38 2 0 2995 1 19 BOARDING
2020-02-02 15:04:38 3 0 2995 1 19 BOARDING
2020-02-02 15:05:38 3 0 2995 1 19 BOARDING
2020-02-02 15:06:38 1 0 2995 1 19 BOARDING
2020-02-02 15:07:38 3 0 2995 1 19 BOARDING
2020-02-02 15:08:38 3 0 2995 1 19 BOARDING
2020-02-02 15:09:38 3 0 2995 1 19 BOARDING
2020-02-02 15:10:38 3 0 2995 1 19 BOARDING
2020-02-02 15:11:38 2 0 2995 1 19 BOARDING
2020-02-02 15:12:38 0 0 2995 1 18 BOARDING
2020-02-02 15:13:38 0 0 2995 1 18 BOARDING
2020-02-02 15:14:38 0 0 2995 1 18 BOARDING
2020-02-02 15:15:38 0 0 2995 1 18 BOARDING
2020-02-02 15:16:38 0 0 2995 1 18 BOARDING
2020-02-02 15:17:38 0 0 2995 1 18 BOARDING
2020-02-02 15:18:38 0 0 2995 1 18 BOARDING
2020-02-02 15:19:38 0 0 2995 1 18 BOARDING
2020-02-02 15:20:38 0 0 2995 1 18 BOARDING
2020-02-02 15:21:38 0 0 2995 1 18 BOARDING
2020-02-02 15:22:38 0 0 2995 1 18 BOARDING
2020-02-02 15:23:38 0 0 2995 1 18 BOARDING
2020-02-02 15:24:38 0 0 2995 1 18 BOARDING
2020-02-02 15:25:38 0 0 2995 1 18 BOARDING
2020-02-02 15:26:38 0 0 2995 1 18 BOARDING
2020-02-02 15:27:38 0 0 2995 1 18 BOARDING
2020-02-02 15:28:38 0 0 2995 1 18 BOARDING
2020-02-02 15:29:38 0 0 2995 1 18 BOARDING
2020-02-02 15:30:38 0 0 2995 1 18 BOARDING
2020-02-02 15:31:38 0 0 2995 1 18 BOARDING
2020-02-02 15:32:38 0 0 2995 1 18 BOARDING
2020-02-02 15:33:38 0 0 2995 1 18 BOARDING
2020-02-02 15:34:38 0 0 2995 1 18 BOARDING
2020-02-02 15:35:38 0 0 2995 1 18 BOARDING
2020-02-02 15:36:38 0 0 2995 1 18 BOARDING
2020-02-02 15:37:38 0 0 2995 3 18 BOARDING
2020-02-02 15:38:38 0 0 2995 7 18 BOARDING
2020-02-02 15:39:38 0 0 2995 12 18 BOARDING
2020-02-02 15:40:38 0 0 2995 17 18 BOARDING
2020-02-02 15:41:38 0 0 2995 21 18 BOARDING
2020-02-02 15:42:38 0 0 2995 27 18 BOARDING
2020-02-02 15:43:38 0 1 2995 36 18 BOARDING
2020-02-02 15:44:38 0 0 2995 51 18 BOARDING
2020-02-02 15:45:38 0 0 2995 64 18 BOARDING
2020-02-02 15:46:38 0 0 2995 76 18 BOARDING
2020-02-02 15:47:38 0 0 2995 89 18 BOARDING
2020-02-02 15:48:38 0 0 2995 101 18 BOARDING
2020-02-02 15:49:38 0 0 2995 113 18 BOARDING
2020-02-02 15:50:38 0 0 2995 124 18 BOARDING
2020-02-02 15:51:38 0 0 2995 133 18 BOARDING
2020-02-02 15:52:38 0 0 2995 142 18 BOARDING
2020-02-02 15:53:38 0 0 2995 152 18 BOARDING
2020-02-02 15:54:38 0 0 2995 161 18 BOARDING
2020-02-02 15:55:38 0 0 2995 171 18 BOARDING
2020-02-02 15:56:38 0 0 2995 180 18 BOARDING
2020-02-02 15:57:38 0 0 2995 190 18 BOARDING
2020-02-02 15:58:38 0 0 2995 200 18 BOARDING
2020-02-02 15:59:38 0 0 2995 209 18 BOARDING
2020-02-02 16:00:38 0 0 2995 217 18 BOARDING
2020-02-02 16:01:38 4 8 2995 228 18 BOARDING
2020-02-02 16:02:38 0 0 2995 244 18 TAXI TO THE RWY
2020-02-02 16:03:38 0 0 2995 257 18 TAXI TO THE RWY
2020-02-02 16:04:38 0 0 2995 267 18 TAXI TO THE RWY
2020-02-02 16:05:38 6 10 2995 280 18 TAXI TO THE RWY
2020-02-02 16:06:38 8 12 2995 294 18 TAXI TO THE RWY
2020-02-02 16:07:38 2 6 2995 309 18 TAXI TO THE RWY
2020-02-02 16:08:38 10 13 2995 323 18 TAXI TO THE RWY
2020-02-02 16:09:38 2 5 2995 337 18 TAXI TO THE RWY
2020-02-02 16:10:38 4 0 2995 351 18 TAXI TO THE RWY
2020-02-02 16:11:38 4 0 2995 365 18 TAXI TO THE RWY
2020-02-02 16:12:38 4 0 2995 379 18 TAXI TO THE RWY
2020-02-02 16:13:38 4 0 2995 394 18 TAXI TO THE RWY
2020-02-02 16:14:38 4 0 2995 408 18 TAXI TO THE RWY
2020-02-02 16:15:38 4 0 2995 422 18 TAXI TO THE RWY
2020-02-02 16:16:38 74 79 2995 470 18 TAXI TO THE RWY
2020-02-02 16:17:38 194 211 5297 601 13 CLIMBING
2020-02-02 16:18:38 207 246 8909 716 5 CLIMBING
2020-02-02 16:19:38 250 291 9197 778 5 CRUISE
2020-02-02 16:20:38 250 287 9283 820 4 CRUISE
2020-02-02 16:21:38 280 331 11244 911 0 CLIMBING
2020-02-02 16:22:38 326 391 12660 1008 -2 CLIMBING
2020-02-02 16:23:38 326 403 15025 1098 -7 CLIMBING
2020-02-02 16:24:38 326 415 17117 1186 -12 CLIMBING
2020-02-02 16:25:38 327 422 19095 1267 -17 CLIMBING
2020-02-02 16:26:38 328 427 20180 1334 -18 CLIMBING
2020-02-02 16:27:38 337 440 20190 1394 -17 CRUISE
2020-02-02 16:28:38 337 439 20190 1447 -17 CRUISE
2020-02-02 16:29:38 337 440 20190 1497 -17 CRUISE
2020-02-02 16:30:38 337 440 20182 1538 -17 CRUISE
2020-02-02 16:31:38 337 442 20166 1592 -17 CRUISE
2020-02-02 16:32:38 337 441 20143 1645 -17 CRUISE
2020-02-02 16:33:38 337 442 20111 1699 -17 CRUISE
2020-02-02 16:34:38 337 442 20109 1753 -17 CRUISE
2020-02-02 16:35:38 337 441 20109 1806 -17 CRUISE
2020-02-02 16:36:38 337 441 20109 1860 -17 CRUISE
2020-02-02 16:37:38 337 440 20096 1913 -17 CRUISE
2020-02-02 16:38:38 337 441 20081 1966 -17 CRUISE
2020-02-02 16:39:38 337 440 20082 2015 -17 CRUISE
2020-02-02 16:40:38 337 441 20082 2035 -17 CRUISE
2020-02-02 16:41:38 337 441 20082 2085 -17 CRUISE
2020-02-02 16:42:38 338 442 20082 2139 -17 CRUISE
2020-02-02 16:43:38 338 442 20078 2192 -17 CRUISE
2020-02-02 16:44:38 338 442 20063 2246 -16 CRUISE
2020-02-02 16:45:38 338 441 20076 2299 -18 CRUISE
2020-02-02 16:46:38 307 393 19527 2322 -17 DESCEND
2020-02-02 16:47:38 290 364 17992 2333 -14 DESCEND
2020-02-02 16:48:38 284 349 16038 2343 -9 DESCEND
2020-02-02 16:49:38 278 338 14368 2352 -5 DESCEND
2020-02-02 16:50:38 274 329 12524 2363 -1 DESCEND
2020-02-02 16:51:38 273 319 10823 2374 2 DESCEND
2020-02-02 16:52:38 241 279 10172 2386 3 DESCEND
2020-02-02 16:53:38 235 267 9043 2398 6 DESCEND
2020-02-02 16:54:38 233 261 7899 2408 11 DESCEND
2020-02-02 16:55:38 232 255 6678 2420 15 DESCEND
2020-02-02 16:56:38 215 233 5916 2432 18 DESCEND
2020-02-02 16:57:38 191 207 5461 2445 19 DESCEND
2020-02-02 16:58:38 178 207 4904 2460 20 DESCEND
2020-02-02 16:59:38 135 160 4615 2488 21 DESCEND
2020-02-02 17:00:38 132 155 4126 2531 22 CRUISE
2020-02-02 17:01:38 133 152 3203 2563 24 DESCEND
2020-02-02 17:02:38 132 142 2566 2602 25 DESCEND
2020-02-02 17:03:38 132 138 1872 2638 26 DESCEND
2020-02-02 17:04:38 9 9 1797 2676 26 TAXI TO THE GATE
2020-02-02 17:05:38 0 10 1797 2707 26 TAXI TO THE GATE
2020-02-02 17:06:38 15 22 1797 2723 26 TAXI TO THE GATE
2020-02-02 17:07:38 0 0 1797 2744 26 TAXI TO THE GATE
2020-02-02 17:08:38 0 0 1797 2745 26 TAXI TO THE GATE